TimeEST,TemperatureF,Dew PointF,Humidity,Sea Level PressureIn,VisibilityMPH,Wind Direction,Wind SpeedMPH,Gust SpeedMPH,PrecipitationIn,Events,Conditions,WindDirDegrees,DateUTC
12:45 AM,19.4,10.4,68,30.20,20.0,WNW,13.8,-,N/A,,Clear,290,2013-02-02 05:45:00
1:45 AM,17.6,12.2,79,30.21,20.0,West,11.5,-,N/A,,Clear,280,2013-02-02 06:45:00
3:45 AM,17.6,12.2,79,30.23,20.0,West,11.5,-,N/A,,Scattered Clouds,270,2013-02-02 08:45:00
4:45 AM,17.6,10.4,73,30.23,20.0,West,10.4,-,N/A,,Clear,260,2013-02-02 09:45:00
5:45 AM,15.8,6.8,68,30.24,20.0,West,9.2,-,N/A,,Clear,270,2013-02-02 10:45:00
7:45 AM,15.8,8.6,73,30.25,20.0,West,11.5,-,N/A,,Clear,270,2013-02-02 12:45:00
8:45 AM,17.6,8.6,68,30.25,20.0,WSW,15.0,-,N/A,,Clear,250,2013-02-02 13:45:00
9:50 AM,19.4,8.6,63,30.23,20.0,West,11.5,-,N/A,,Clear,270,2013-02-02 14:50:00
10:45 AM,21.2,8.6,58,30.21,20.0,SW,11.5,-,N/A,,Clear,220,2013-02-02 15:45:00
11:45 AM,24.8,10.4,54,30.15,20.0,SW,13.8,-,N/A,,Partly Cloudy,230,2013-02-02 16:45:00
12:45 PM,26.6,8.6,47,30.13,20.0,SSW,11.5,20.7,N/A,,Scattered Clouds,210,2013-02-02 17:45:00
1:45 PM,28.4,6.8,40,30.10,20.0,West,11.5,24.2,N/A,,Partly Cloudy,270,2013-02-02 18:45:00
3:45 PM,24.8,8.6,50,30.07,15.0,WSW,11.5,11.5,N/A,,Overcast,240,2013-02-02 20:45:00
4:45 PM,23.0,12.2,63,30.07,15.0,West,13.8,-,N/A,,Overcast,260,2013-02-02 21:45:00
5:45 PM,21.2,14.0,74,30.07,10.0,West,11.5,23.0,N/A,,Overcast,270,2013-02-02 22:45:00
7:05 PM,19.4,17.6,93,30.08,2.5,WSW,6.9,-,N/A,Snow,Light Snow,240,2013-02-03 00:05:00
7:45 PM,19.4,17.6,93,30.08,3.0,West,6.9,-,N/A,Snow,Light Snow,260,2013-02-03 00:45:00
8:45 PM,19.4,17.6,93,30.08,5.0,Calm,Calm,-,N/A,Snow,Light Snow,0,2013-02-03 01:45:00
9:45 PM,19.4,17.6,93,30.07,4.0,Calm,Calm,-,N/A,Snow,Light Snow,0,2013-02-03 02:45:00
10:45 PM,19.4,17.6,93,30.06,4.0,Calm,Calm,-,N/A,Snow,Light Snow,0,2013-02-03 03:45:00
11:45 PM,19.4,17.6,93,30.04,3.0,Calm,Calm,-,N/A,Snow,Light Snow,0,2013-02-03 04:45:00